sensor_id;sensor_type;location;lat;lon;timestamp;P1;durP1;ratioP1;P2;durP2;ratioP2
18265;SDS011;9259;48.194;16.322;2022-12-29T00:01:22;42.43;;;18.23;;
18265;SDS011;9259;48.194;16.322;2022-12-29T00:03:52;42.83;;;19.90;;
18265;SDS011;9259;48.194;16.322;2022-12-29T00:06:20;47.30;;;19.97;;
18265;SDS011;9259;48.194;16.322;2022-12-29T00:08:48;41.27;;;17.53;;
18265;SDS011;9259;48.194;16.322;2022-12-29T00:11:18;40.67;;;17.70;;
18265;SDS011;9259;48.194;16.322;2022-12-29T00:13:47;38.67;;;18.43;;
18265;SDS011;9259;48.194;16.322;2022-12-29T00:16:33;38.43;;;17.27;;
18265;SDS011;9259;48.194;16.322;2022-12-29T00:19:03;38.50;;;17.57;;
18265;SDS011;9259;48.194;16.322;2022-12-29T00:21:31;36.20;;;16.23;;
18265;SDS011;9259;48.194;16.322;2022-12-29T00:24:18;44.17;;;16.37;;
18265;SDS011;9259;48.194;16.322;2022-12-29T00:27:09;37.90;;;16.63;;
18265;SDS011;9259;48.194;16.322;2022-12-29T00:30:01;32.60;;;15.13;;
18265;SDS011;9259;48.194;16.322;2022-12-29T00:32:47;31.43;;;14.80;;
18265;SDS011;9259;48.194;16.322;2022-12-29T00:35:38;31.37;;;14.53;;
18265;SDS011;9259;48.194;16.322;2022-12-29T00:38:09;31.70;;;15.77;;
18265;SDS011;9259;48.194;16.322;2022-12-29T00:40:55;39.70;;;16.07;;
18265;SDS011;9259;48.194;16.322;2022-12-29T00:43:41;35.87;;;16.20;;
18265;SDS011;9259;48.194;16.322;2022-12-29T00:46:27;35.67;;;16.13;;
18265;SDS011;9259;48.194;16.322;2022-12-29T00:48:55;36.10;;;16.27;;
18265;SDS011;9259;48.194;16.322;2022-12-29T00:51:42;36.03;;;14.97;;
18265;SDS011;9259;48.194;16.322;2022-12-29T00:54:10;36.80;;;16.10;;
18265;SDS011;9259;48.194;16.322;2022-12-29T00:56:38;35.53;;;16.10;;
18265;SDS011;9259;48.194;16.322;2022-12-29T00:59:08;42.17;;;16.80;;
18265;SDS011;9259;48.194;16.322;2022-12-29T01:01:37;39.50;;;16.33;;
18265;SDS011;9259;48.194;16.322;2022-12-29T01:04:05;37.57;;;15.17;;
18265;SDS011;9259;48.194;16.322;2022-12-29T01:06:34;39.03;;;14.97;;
18265;SDS011;9259;48.194;16.322;2022-12-29T01:09:04;32.60;;;15.00;;
18265;SDS011;9259;48.194;16.322;2022-12-29T01:11:50;37.43;;;15.20;;
18265;SDS011;9259;48.194;16.322;2022-12-29T01:14:19;35.40;;;14.97;;
18265;SDS011;9259;48.194;16.322;2022-12-29T01:16:47;38.03;;;14.83;;
18265;SDS011;9259;48.194;16.322;2022-12-29T01:19:16;34.40;;;13.80;;
18265;SDS011;9259;48.194;16.322;2022-12-29T01:21:45;31.37;;;13.87;;
18265;SDS011;9259;48.194;16.322;2022-12-29T01:24:14;30.57;;;13.40;;
18265;SDS011;9259;48.194;16.322;2022-12-29T01:26:43;29.23;;;13.13;;
18265;SDS011;9259;48.194;16.322;2022-12-29T01:29:11;31.43;;;12.87;;
18265;SDS011;9259;48.194;16.322;2022-12-29T01:31:40;31.10;;;13.63;;
18265;SDS011;9259;48.194;16.322;2022-12-29T01:34:08;33.47;;;13.70;;
18265;SDS011;9259;48.194;16.322;2022-12-29T01:36:36;34.03;;;13.67;;
18265;SDS011;9259;48.194;16.322;2022-12-29T01:39:04;37.63;;;13.73;;
18265;SDS011;9259;48.194;16.322;2022-12-29T01:41:34;33.30;;;13.57;;
18265;SDS011;9259;48.194;16.322;2022-12-29T01:44:02;31.53;;;13.67;;
18265;SDS011;9259;48.194;16.322;2022-12-29T01:46:45;31.27;;;13.80;;
18265;SDS011;9259;48.194;16.322;2022-12-29T01:49:16;28.93;;;12.97;;
18265;SDS011;9259;48.194;16.322;2022-12-29T01:51:47;29.97;;;12.90;;
18265;SDS011;9259;48.194;16.322;2022-12-29T01:54:17;32.07;;;13.70;;
18265;SDS011;9259;48.194;16.322;2022-12-29T01:56:50;31.50;;;13.10;;
18265;SDS011;9259;48.194;16.322;2022-12-29T01:59:19;32.63;;;13.73;;
18265;SDS011;9259;48.194;16.322;2022-12-29T02:01:49;31.60;;;13.00;;
18265;SDS011;9259;48.194;16.322;2022-12-29T02:04:17;26.80;;;13.20;;
18265;SDS011;9259;48.194;16.322;2022-12-29T02:06:47;28.27;;;12.60;;
18265;SDS011;9259;48.194;16.322;2022-12-29T02:09:18;27.77;;;13.30;;
18265;SDS011;9259;48.194;16.322;2022-12-29T02:11:46;33.50;;;13.53;;
18265;SDS011;9259;48.194;16.322;2022-12-29T02:14:16;26.33;;;12.23;;
18265;SDS011;9259;48.194;16.322;2022-12-29T02:16:48;30.77;;;12.50;;
18265;SDS011;9259;48.194;16.322;2022-12-29T02:22:27;28.93;;;12.53;;
18265;SDS011;9259;48.194;16.322;2022-12-29T02:25:14;29.53;;;12.07;;
18265;SDS011;9259;48.194;16.322;2022-12-29T02:28:11;33.40;;;13.30;;
18265;SDS011;9259;48.194;16.322;2022-12-29T02:30:59;36.53;;;13.83;;
18265;SDS011;9259;48.194;16.322;2022-12-29T02:33:35;29.97;;;14.20;;
18265;SDS011;9259;48.194;16.322;2022-12-29T02:36:11;31.90;;;13.73;;
18265;SDS011;9259;48.194;16.322;2022-12-29T02:38:48;28.43;;;12.83;;
18265;SDS011;9259;48.194;16.322;2022-12-29T02:41:23;32.33;;;12.90;;
18265;SDS011;9259;48.194;16.322;2022-12-29T02:43:56;26.73;;;12.87;;
18265;SDS011;9259;48.194;16.322;2022-12-29T02:46:32;30.27;;;13.63;;
18265;SDS011;9259;48.194;16.322;2022-12-29T02:49:04;35.10;;;14.20;;
18265;SDS011;9259;48.194;16.322;2022-12-29T02:51:36;36.00;;;14.37;;
18265;SDS011;9259;48.194;16.322;2022-12-29T02:54:09;32.43;;;14.60;;
18265;SDS011;9259;48.194;16.322;2022-12-29T02:56:55;36.60;;;15.20;;
18265;SDS011;9259;48.194;16.322;2022-12-29T02:59:23;32.73;;;14.40;;
18265;SDS011;9259;48.194;16.322;2022-12-29T03:01:59;35.07;;;14.07;;
18265;SDS011;9259;48.194;16.322;2022-12-29T03:04:51;42.03;;;14.53;;
18265;SDS011;9259;48.194;16.322;2022-12-29T03:07:39;29.83;;;13.63;;
18265;SDS011;9259;48.194;16.322;2022-12-29T03:10:14;36.67;;;14.00;;
18265;SDS011;9259;48.194;16.322;2022-12-29T03:12:47;35.17;;;13.03;;
18265;SDS011;9259;48.194;16.322;2022-12-29T03:15:39;34.23;;;13.90;;
18265;SDS011;9259;48.194;16.322;2022-12-29T03:18:36;34.27;;;15.37;;
18265;SDS011;9259;48.194;16.322;2022-12-29T03:21:11;37.40;;;16.80;;
18265;SDS011;9259;48.194;16.322;2022-12-29T03:23:42;40.87;;;17.43;;
18265;SDS011;9259;48.194;16.322;2022-12-29T03:26:13;37.03;;;14.83;;
18265;SDS011;9259;48.194;16.322;2022-12-29T03:28:45;33.60;;;14.70;;
18265;SDS011;9259;48.194;16.322;2022-12-29T03:31:15;33.40;;;15.17;;
18265;SDS011;9259;48.194;16.322;2022-12-29T03:33:45;31.77;;;14.47;;
18265;SDS011;9259;48.194;16.322;2022-12-29T03:36:16;32.73;;;14.20;;
18265;SDS011;9259;48.194;16.322;2022-12-29T03:38:48;35.00;;;13.40;;
18265;SDS011;9259;48.194;16.322;2022-12-29T03:41:25;36.87;;;14.20;;
18265;SDS011;9259;48.194;16.322;2022-12-29T03:43:56;30.20;;;13.73;;
18265;SDS011;9259;48.194;16.322;2022-12-29T03:46:24;29.43;;;12.37;;
18265;SDS011;9259;48.194;16.322;2022-12-29T03:48:53;26.53;;;11.90;;
18265;SDS011;9259;48.194;16.322;2022-12-29T03:51:21;27.87;;;12.53;;
18265;SDS011;9259;48.194;16.322;2022-12-29T03:53:49;28.47;;;10.83;;
18265;SDS011;9259;48.194;16.322;2022-12-29T03:56:17;28.63;;;12.77;;
18265;SDS011;9259;48.194;16.322;2022-12-29T03:58:45;23.23;;;11.20;;
18265;SDS011;9259;48.194;16.322;2022-12-29T04:01:13;24.73;;;11.90;;
18265;SDS011;9259;48.194;16.322;2022-12-29T04:03:42;26.23;;;12.03;;
18265;SDS011;9259;48.194;16.322;2022-12-29T04:06:11;26.53;;;12.50;;
18265;SDS011;9259;48.194;16.322;2022-12-29T04:08:39;28.13;;;12.57;;
18265;SDS011;9259;48.194;16.322;2022-12-29T04:11:07;25.30;;;12.47;;
18265;SDS011;9259;48.194;16.322;2022-12-29T04:13:35;30.63;;;12.73;;
18265;SDS011;9259;48.194;16.322;2022-12-29T04:16:06;26.60;;;11.87;;
18265;SDS011;9259;48.194;16.322;2022-12-29T04:18:34;28.10;;;11.60;;
18265;SDS011;9259;48.194;16.322;2022-12-29T04:21:03;26.30;;;12.17;;
18265;SDS011;9259;48.194;16.322;2022-12-29T04:23:32;24.40;;;11.10;;
18265;SDS011;9259;48.194;16.322;2022-12-29T04:26:01;28.20;;;11.67;;
18265;SDS011;9259;48.194;16.322;2022-12-29T04:28:29;23.47;;;11.47;;
18265;SDS011;9259;48.194;16.322;2022-12-29T04:30:57;23.67;;;11.33;;
18265;SDS011;9259;48.194;16.322;2022-12-29T04:33:26;24.97;;;10.73;;
18265;SDS011;9259;48.194;16.322;2022-12-29T04:35:54;24.30;;;10.77;;
18265;SDS011;9259;48.194;16.322;2022-12-29T04:38:22;26.43;;;11.83;;
18265;SDS011;9259;48.194;16.322;2022-12-29T04:40:52;24.80;;;11.97;;
18265;SDS011;9259;48.194;16.322;2022-12-29T04:43:20;27.07;;;12.07;;
18265;SDS011;9259;48.194;16.322;2022-12-29T04:45:48;25.57;;;12.00;;
18265;SDS011;9259;48.194;16.322;2022-12-29T04:48:16;22.43;;;11.23;;
18265;SDS011;9259;48.194;16.322;2022-12-29T04:50:46;27.17;;;12.33;;
18265;SDS011;9259;48.194;16.322;2022-12-29T04:53:15;24.00;;;12.10;;
18265;SDS011;9259;48.194;16.322;2022-12-29T04:55:44;25.30;;;11.77;;
18265;SDS011;9259;48.194;16.322;2022-12-29T04:58:17;26.17;;;12.00;;
18265;SDS011;9259;48.194;16.322;2022-12-29T05:00:45;20.90;;;11.20;;
18265;SDS011;9259;48.194;16.322;2022-12-29T05:03:13;20.77;;;10.67;;
18265;SDS011;9259;48.194;16.322;2022-12-29T05:05:41;25.97;;;11.43;;
18265;SDS011;9259;48.194;16.322;2022-12-29T05:08:24;30.37;;;12.90;;
18265;SDS011;9259;48.194;16.322;2022-12-29T05:10:52;22.00;;;11.53;;
18265;SDS011;9259;48.194;16.322;2022-12-29T05:13:21;24.57;;;11.60;;
18265;SDS011;9259;48.194;16.322;2022-12-29T05:15:49;26.40;;;11.63;;
18265;SDS011;9259;48.194;16.322;2022-12-29T05:18:18;27.73;;;12.57;;
18265;SDS011;9259;48.194;16.322;2022-12-29T05:20:46;28.03;;;12.23;;
18265;SDS011;9259;48.194;16.322;2022-12-29T05:23:15;29.27;;;12.90;;
18265;SDS011;9259;48.194;16.322;2022-12-29T05:25:43;24.70;;;12.47;;
18265;SDS011;9259;48.194;16.322;2022-12-29T05:28:12;27.90;;;12.77;;
18265;SDS011;9259;48.194;16.322;2022-12-29T05:30:41;27.43;;;12.40;;
18265;SDS011;9259;48.194;16.322;2022-12-29T05:33:09;26.50;;;13.03;;
18265;SDS011;9259;48.194;16.322;2022-12-29T05:35:38;25.50;;;13.10;;
18265;SDS011;9259;48.194;16.322;2022-12-29T05:38:06;27.03;;;12.77;;
18265;SDS011;9259;48.194;16.322;2022-12-29T05:40:34;30.43;;;12.90;;
18265;SDS011;9259;48.194;16.322;2022-12-29T05:43:02;29.87;;;14.10;;
18265;SDS011;9259;48.194;16.322;2022-12-29T05:45:30;24.10;;;13.07;;
18265;SDS011;9259;48.194;16.322;2022-12-29T05:48:00;30.87;;;14.13;;
18265;SDS011;9259;48.194;16.322;2022-12-29T05:50:28;27.60;;;13.83;;
18265;SDS011;9259;48.194;16.322;2022-12-29T05:52:56;26.50;;;12.70;;
18265;SDS011;9259;48.194;16.322;2022-12-29T05:55:24;25.73;;;12.70;;
18265;SDS011;9259;48.194;16.322;2022-12-29T05:57:53;28.60;;;12.47;;
18265;SDS011;9259;48.194;16.322;2022-12-29T06:00:21;27.50;;;12.43;;
18265;SDS011;9259;48.194;16.322;2022-12-29T06:02:49;28.30;;;13.17;;
18265;SDS011;9259;48.194;16.322;2022-12-29T06:05:19;23.57;;;12.27;;
18265;SDS011;9259;48.194;16.322;2022-12-29T06:07:47;30.33;;;13.13;;
18265;SDS011;9259;48.194;16.322;2022-12-29T06:10:15;26.97;;;13.00;;
18265;SDS011;9259;48.194;16.322;2022-12-29T06:12:43;28.43;;;13.47;;
18265;SDS011;9259;48.194;16.322;2022-12-29T06:15:12;29.10;;;13.63;;
18265;SDS011;9259;48.194;16.322;2022-12-29T06:17:40;28.27;;;13.20;;
18265;SDS011;9259;48.194;16.322;2022-12-29T06:20:09;28.80;;;12.83;;
18265;SDS011;9259;48.194;16.322;2022-12-29T06:22:39;30.10;;;13.37;;
18265;SDS011;9259;48.194;16.322;2022-12-29T06:25:07;24.53;;;12.93;;
18265;SDS011;9259;48.194;16.322;2022-12-29T06:27:35;32.10;;;13.67;;
18265;SDS011;9259;48.194;16.322;2022-12-29T06:30:04;31.57;;;14.23;;
18265;SDS011;9259;48.194;16.322;2022-12-29T06:32:32;28.20;;;12.83;;
18265;SDS011;9259;48.194;16.322;2022-12-29T06:35:01;28.27;;;14.23;;
18265;SDS011;9259;48.194;16.322;2022-12-29T06:37:29;29.90;;;14.27;;
18265;SDS011;9259;48.194;16.322;2022-12-29T06:39:58;29.70;;;15.20;;
18265;SDS011;9259;48.194;16.322;2022-12-29T06:42:27;32.87;;;14.40;;
18265;SDS011;9259;48.194;16.322;2022-12-29T06:44:55;32.33;;;15.27;;
18265;SDS011;9259;48.194;16.322;2022-12-29T06:47:26;25.97;;;13.97;;
18265;SDS011;9259;48.194;16.322;2022-12-29T06:49:54;34.10;;;15.03;;
18265;SDS011;9259;48.194;16.322;2022-12-29T06:52:22;34.43;;;14.03;;
18265;SDS011;9259;48.194;16.322;2022-12-29T06:54:50;31.13;;;13.53;;
18265;SDS011;9259;48.194;16.322;2022-12-29T06:57:20;30.73;;;13.67;;
18265;SDS011;9259;48.194;16.322;2022-12-29T06:59:48;29.80;;;12.80;;
18265;SDS011;9259;48.194;16.322;2022-12-29T07:02:17;34.33;;;15.17;;
18265;SDS011;9259;48.194;16.322;2022-12-29T07:04:45;34.83;;;15.10;;
18265;SDS011;9259;48.194;16.322;2022-12-29T07:07:13;39.00;;;16.43;;
18265;SDS011;9259;48.194;16.322;2022-12-29T07:09:41;40.10;;;16.33;;
18265;SDS011;9259;48.194;16.322;2022-12-29T07:12:09;29.47;;;14.10;;
18265;SDS011;9259;48.194;16.322;2022-12-29T07:14:39;27.60;;;12.07;;
18265;SDS011;9259;48.194;16.322;2022-12-29T07:17:07;29.33;;;13.33;;
18265;SDS011;9259;48.194;16.322;2022-12-29T07:19:35;28.07;;;12.27;;
18265;SDS011;9259;48.194;16.322;2022-12-29T07:22:03;25.70;;;12.57;;
18265;SDS011;9259;48.194;16.322;2022-12-29T07:24:31;29.63;;;13.60;;
18265;SDS011;9259;48.194;16.322;2022-12-29T07:26:59;32.23;;;13.57;;
18265;SDS011;9259;48.194;16.322;2022-12-29T07:29:28;28.87;;;13.60;;
18265;SDS011;9259;48.194;16.322;2022-12-29T07:31:57;31.90;;;13.50;;
18265;SDS011;9259;48.194;16.322;2022-12-29T07:34:25;29.60;;;14.23;;
18265;SDS011;9259;48.194;16.322;2022-12-29T07:36:54;29.83;;;13.80;;
18265;SDS011;9259;48.194;16.322;2022-12-29T07:39:22;30.17;;;12.37;;
18265;SDS011;9259;48.194;16.322;2022-12-29T07:41:50;29.80;;;12.83;;
18265;SDS011;9259;48.194;16.322;2022-12-29T07:44:18;28.27;;;13.33;;
18265;SDS011;9259;48.194;16.322;2022-12-29T07:46:46;30.90;;;13.17;;
18265;SDS011;9259;48.194;16.322;2022-12-29T07:49:16;35.70;;;13.67;;
18265;SDS011;9259;48.194;16.322;2022-12-29T07:51:44;41.43;;;16.10;;
18265;SDS011;9259;48.194;16.322;2022-12-29T07:54:12;49.33;;;17.73;;
18265;SDS011;9259;48.194;16.322;2022-12-29T07:56:43;40.37;;;16.43;;
18265;SDS011;9259;48.194;16.322;2022-12-29T07:59:11;41.10;;;16.60;;
18265;SDS011;9259;48.194;16.322;2022-12-29T08:01:40;48.50;;;19.80;;
18265;SDS011;9259;48.194;16.322;2022-12-29T08:04:08;51.13;;;20.67;;
18265;SDS011;9259;48.194;16.322;2022-12-29T08:06:37;53.40;;;19.77;;
18265;SDS011;9259;48.194;16.322;2022-12-29T08:09:05;45.27;;;17.07;;
18265;SDS011;9259;48.194;16.322;2022-12-29T08:11:34;49.93;;;19.93;;
18265;SDS011;9259;48.194;16.322;2022-12-29T08:14:03;73.97;;;23.17;;
18265;SDS011;9259;48.194;16.322;2022-12-29T08:16:31;59.10;;;21.67;;
18265;SDS011;9259;48.194;16.322;2022-12-29T08:18:59;82.70;;;23.27;;
18265;SDS011;9259;48.194;16.322;2022-12-29T08:21:29;71.53;;;23.27;;
18265;SDS011;9259;48.194;16.322;2022-12-29T08:23:58;142.23;;;25.73;;
18265;SDS011;9259;48.194;16.322;2022-12-29T08:26:26;116.97;;;24.97;;
18265;SDS011;9259;48.194;16.322;2022-12-29T08:28:54;174.30;;;27.60;;
18265;SDS011;9259;48.194;16.322;2022-12-29T08:31:23;183.93;;;25.63;;
18265;SDS011;9259;48.194;16.322;2022-12-29T08:33:51;191.60;;;27.70;;
18265;SDS011;9259;48.194;16.322;2022-12-29T08:36:19;188.87;;;23.83;;
18265;SDS011;9259;48.194;16.322;2022-12-29T08:38:47;206.60;;;24.97;;
18265;SDS011;9259;48.194;16.322;2022-12-29T08:41:17;222.73;;;25.73;;
18265;SDS011;9259;48.194;16.322;2022-12-29T08:43:45;172.80;;;24.83;;
18265;SDS011;9259;48.194;16.322;2022-12-29T08:46:13;128.93;;;25.77;;
18265;SDS011;9259;48.194;16.322;2022-12-29T08:48:42;182.93;;;28.20;;
18265;SDS011;9259;48.194;16.322;2022-12-29T08:51:10;129.47;;;27.80;;
18265;SDS011;9259;48.194;16.322;2022-12-29T08:53:38;126.73;;;27.20;;
18265;SDS011;9259;48.194;16.322;2022-12-29T08:56:08;98.60;;;26.77;;
18265;SDS011;9259;48.194;16.322;2022-12-29T08:58:38;138.80;;;27.23;;
18265;SDS011;9259;48.194;16.322;2022-12-29T09:01:06;123.13;;;29.40;;
18265;SDS011;9259;48.194;16.322;2022-12-29T09:03:35;95.90;;;27.50;;
18265;SDS011;9259;48.194;16.322;2022-12-29T09:06:04;108.10;;;27.80;;
18265;SDS011;9259;48.194;16.322;2022-12-29T09:08:32;113.17;;;27.30;;
18265;SDS011;9259;48.194;16.322;2022-12-29T09:11:09;114.93;;;29.23;;
18265;SDS011;9259;48.194;16.322;2022-12-29T09:13:40;112.67;;;30.83;;
18265;SDS011;9259;48.194;16.322;2022-12-29T09:16:08;100.17;;;26.80;;
18265;SDS011;9259;48.194;16.322;2022-12-29T09:18:37;71.80;;;25.73;;
18265;SDS011;9259;48.194;16.322;2022-12-29T09:21:05;72.73;;;25.63;;
18265;SDS011;9259;48.194;16.322;2022-12-29T09:23:34;66.23;;;24.20;;
18265;SDS011;9259;48.194;16.322;2022-12-29T09:26:02;69.17;;;24.90;;
18265;SDS011;9259;48.194;16.322;2022-12-29T09:28:30;56.60;;;22.57;;
18265;SDS011;9259;48.194;16.322;2022-12-29T09:31:00;64.00;;;22.73;;
18265;SDS011;9259;48.194;16.322;2022-12-29T09:33:28;61.07;;;24.40;;
18265;SDS011;9259;48.194;16.322;2022-12-29T09:35:58;60.43;;;23.60;;
18265;SDS011;9259;48.194;16.322;2022-12-29T09:38:27;53.10;;;21.47;;
18265;SDS011;9259;48.194;16.322;2022-12-29T09:40:56;53.30;;;21.13;;
18265;SDS011;9259;48.194;16.322;2022-12-29T09:43:32;49.70;;;20.27;;
18265;SDS011;9259;48.194;16.322;2022-12-29T09:46:19;53.10;;;19.87;;
18265;SDS011;9259;48.194;16.322;2022-12-29T09:48:54;66.70;;;23.17;;
18265;SDS011;9259;48.194;16.322;2022-12-29T09:51:27;55.23;;;23.17;;
18265;SDS011;9259;48.194;16.322;2022-12-29T09:53:56;51.00;;;20.77;;
18265;SDS011;9259;48.194;16.322;2022-12-29T09:56:27;104.60;;;22.47;;
18265;SDS011;9259;48.194;16.322;2022-12-29T09:58:58;83.37;;;22.57;;
18265;SDS011;9259;48.194;16.322;2022-12-29T10:01:32;71.33;;;24.20;;
18265;SDS011;9259;48.194;16.322;2022-12-29T10:04:03;193.23;;;25.43;;
18265;SDS011;9259;48.194;16.322;2022-12-29T10:06:32;146.90;;;23.97;;
18265;SDS011;9259;48.194;16.322;2022-12-29T10:09:08;135.03;;;25.87;;
18265;SDS011;9259;48.194;16.322;2022-12-29T10:11:48;153.10;;;25.80;;
18265;SDS011;9259;48.194;16.322;2022-12-29T10:14:29;151.43;;;27.33;;
18265;SDS011;9259;48.194;16.322;2022-12-29T10:17:08;127.23;;;26.00;;
18265;SDS011;9259;48.194;16.322;2022-12-29T10:19:46;118.47;;;27.93;;
18265;SDS011;9259;48.194;16.322;2022-12-29T10:22:26;100.07;;;26.53;;
18265;SDS011;9259;48.194;16.322;2022-12-29T10:25:09;121.23;;;28.23;;
18265;SDS011;9259;48.194;16.322;2022-12-29T10:27:39;87.50;;;23.70;;
18265;SDS011;9259;48.194;16.322;2022-12-29T10:30:11;110.77;;;26.87;;
18265;SDS011;9259;48.194;16.322;2022-12-29T10:32:42;107.00;;;26.30;;
18265;SDS011;9259;48.194;16.322;2022-12-29T10:35:14;143.93;;;31.47;;
18265;SDS011;9259;48.194;16.322;2022-12-29T10:37:46;86.97;;;27.80;;
18265;SDS011;9259;48.194;16.322;2022-12-29T10:40:21;124.10;;;27.97;;
18265;SDS011;9259;48.194;16.322;2022-12-29T10:42:52;83.80;;;26.53;;
18265;SDS011;9259;48.194;16.322;2022-12-29T10:45:21;82.47;;;27.83;;
18265;SDS011;9259;48.194;16.322;2022-12-29T10:47:53;67.17;;;26.73;;
18265;SDS011;9259;48.194;16.322;2022-12-29T10:50:24;84.93;;;27.67;;
18265;SDS011;9259;48.194;16.322;2022-12-29T10:52:55;111.73;;;26.50;;
18265;SDS011;9259;48.194;16.322;2022-12-29T10:55:24;120.37;;;27.77;;
18265;SDS011;9259;48.194;16.322;2022-12-29T10:57:54;97.70;;;25.87;;
18265;SDS011;9259;48.194;16.322;2022-12-29T11:00:23;105.77;;;27.40;;
18265;SDS011;9259;48.194;16.322;2022-12-29T11:03:07;75.13;;;28.37;;
18265;SDS011;9259;48.194;16.322;2022-12-29T11:06:00;127.47;;;27.53;;
18265;SDS011;9259;48.194;16.322;2022-12-29T11:08:33;113.80;;;26.67;;
18265;SDS011;9259;48.194;16.322;2022-12-29T11:11:04;74.60;;;27.53;;
18265;SDS011;9259;48.194;16.322;2022-12-29T11:13:34;85.80;;;26.57;;
18265;SDS011;9259;48.194;16.322;2022-12-29T11:16:13;87.80;;;27.60;;
18265;SDS011;9259;48.194;16.322;2022-12-29T11:18:43;129.40;;;28.90;;
18265;SDS011;9259;48.194;16.322;2022-12-29T11:21:25;89.90;;;26.87;;
18265;SDS011;9259;48.194;16.322;2022-12-29T11:23:55;103.00;;;25.97;;
18265;SDS011;9259;48.194;16.322;2022-12-29T11:26:24;79.67;;;28.43;;
18265;SDS011;9259;48.194;16.322;2022-12-29T11:29:11;130.40;;;30.40;;
18265;SDS011;9259;48.194;16.322;2022-12-29T11:31:45;101.80;;;29.10;;
18265;SDS011;9259;48.194;16.322;2022-12-29T11:34:19;100.87;;;30.37;;
18265;SDS011;9259;48.194;16.322;2022-12-29T11:36:49;92.17;;;30.73;;
18265;SDS011;9259;48.194;16.322;2022-12-29T11:42:05;85.33;;;31.37;;
18265;SDS011;9259;48.194;16.322;2022-12-29T11:44:41;110.40;;;30.27;;
18265;SDS011;9259;48.194;16.322;2022-12-29T11:47:12;101.00;;;29.27;;
18265;SDS011;9259;48.194;16.322;2022-12-29T11:49:50;92.57;;;29.37;;
18265;SDS011;9259;48.194;16.322;2022-12-29T11:52:23;84.37;;;29.27;;
18265;SDS011;9259;48.194;16.322;2022-12-29T11:54:53;72.70;;;27.57;;
18265;SDS011;9259;48.194;16.322;2022-12-29T11:57:21;76.63;;;28.67;;
18265;SDS011;9259;48.194;16.322;2022-12-29T11:59:51;81.10;;;30.13;;
18265;SDS011;9259;48.194;16.322;2022-12-29T12:02:30;81.73;;;28.90;;
18265;SDS011;9259;48.194;16.322;2022-12-29T12:05:14;87.53;;;30.53;;
18265;SDS011;9259;48.194;16.322;2022-12-29T12:07:55;94.07;;;30.00;;
18265;SDS011;9259;48.194;16.322;2022-12-29T12:10:28;83.67;;;33.27;;
18265;SDS011;9259;48.194;16.322;2022-12-29T12:13:02;85.27;;;30.37;;
18265;SDS011;9259;48.194;16.322;2022-12-29T12:15:34;76.93;;;29.40;;
18265;SDS011;9259;48.194;16.322;2022-12-29T12:18:08;77.40;;;29.17;;
18265;SDS011;9259;48.194;16.322;2022-12-29T12:20:44;73.27;;;29.27;;
18265;SDS011;9259;48.194;16.322;2022-12-29T12:26:09;75.23;;;28.87;;
18265;SDS011;9259;48.194;16.322;2022-12-29T12:28:41;85.50;;;29.50;;
18265;SDS011;9259;48.194;16.322;2022-12-29T12:31:15;85.93;;;29.60;;
18265;SDS011;9259;48.194;16.322;2022-12-29T12:33:49;74.13;;;28.90;;
18265;SDS011;9259;48.194;16.322;2022-12-29T12:36:39;80.30;;;29.30;;
18265;SDS011;9259;48.194;16.322;2022-12-29T12:39:19;76.00;;;29.70;;
18265;SDS011;9259;48.194;16.322;2022-12-29T12:41:57;72.97;;;28.80;;
18265;SDS011;9259;48.194;16.322;2022-12-29T12:44:36;79.03;;;30.27;;
18265;SDS011;9259;48.194;16.322;2022-12-29T12:47:14;72.37;;;27.73;;
18265;SDS011;9259;48.194;16.322;2022-12-29T12:52:53;76.27;;;28.47;;
18265;SDS011;9259;48.194;16.322;2022-12-29T12:55:51;74.83;;;28.90;;
18265;SDS011;9259;48.194;16.322;2022-12-29T12:58:30;77.13;;;29.40;;
18265;SDS011;9259;48.194;16.322;2022-12-29T13:01:07;82.50;;;31.20;;
18265;SDS011;9259;48.194;16.322;2022-12-29T13:03:47;75.27;;;29.53;;
18265;SDS011;9259;48.194;16.322;2022-12-29T13:06:32;68.50;;;27.30;;
18265;SDS011;9259;48.194;16.322;2022-12-29T13:09:11;71.90;;;28.90;;
18265;SDS011;9259;48.194;16.322;2022-12-29T13:12:06;74.70;;;29.20;;
18265;SDS011;9259;48.194;16.322;2022-12-29T13:14:47;78.80;;;28.77;;
18265;SDS011;9259;48.194;16.322;2022-12-29T13:17:23;80.90;;;29.83;;
18265;SDS011;9259;48.194;16.322;2022-12-29T13:19:57;74.63;;;28.93;;
18265;SDS011;9259;48.194;16.322;2022-12-29T13:22:36;72.53;;;27.73;;
18265;SDS011;9259;48.194;16.322;2022-12-29T13:25:16;75.03;;;28.83;;
18265;SDS011;9259;48.194;16.322;2022-12-29T13:27:59;71.07;;;30.00;;
18265;SDS011;9259;48.194;16.322;2022-12-29T13:30:32;76.30;;;32.27;;
18265;SDS011;9259;48.194;16.322;2022-12-29T13:33:03;81.53;;;31.33;;
18265;SDS011;9259;48.194;16.322;2022-12-29T13:35:44;83.20;;;31.20;;
18265;SDS011;9259;48.194;16.322;2022-12-29T13:38:24;75.40;;;31.00;;
18265;SDS011;9259;48.194;16.322;2022-12-29T13:40:59;79.03;;;30.10;;
18265;SDS011;9259;48.194;16.322;2022-12-29T13:43:29;74.43;;;29.33;;
18265;SDS011;9259;48.194;16.322;2022-12-29T13:46:00;81.50;;;30.27;;
18265;SDS011;9259;48.194;16.322;2022-12-29T13:48:35;72.73;;;28.90;;
18265;SDS011;9259;48.194;16.322;2022-12-29T13:51:06;75.47;;;29.43;;
18265;SDS011;9259;48.194;16.322;2022-12-29T13:53:37;74.40;;;29.57;;
18265;SDS011;9259;48.194;16.322;2022-12-29T13:56:12;77.07;;;30.13;;
18265;SDS011;9259;48.194;16.322;2022-12-29T13:58:47;68.90;;;29.63;;
18265;SDS011;9259;48.194;16.322;2022-12-29T14:01:18;75.60;;;30.43;;
18265;SDS011;9259;48.194;16.322;2022-12-29T14:03:49;74.07;;;29.37;;
18265;SDS011;9259;48.194;16.322;2022-12-29T14:06:20;70.97;;;29.17;;
18265;SDS011;9259;48.194;16.322;2022-12-29T14:08:50;77.10;;;30.17;;
18265;SDS011;9259;48.194;16.322;2022-12-29T14:11:21;76.67;;;30.17;;
18265;SDS011;9259;48.194;16.322;2022-12-29T14:13:53;98.07;;;36.33;;
18265;SDS011;9259;48.194;16.322;2022-12-29T14:16:26;71.50;;;27.63;;
18265;SDS011;9259;48.194;16.322;2022-12-29T14:18:56;75.67;;;29.07;;
18265;SDS011;9259;48.194;16.322;2022-12-29T14:21:32;69.33;;;28.77;;
18265;SDS011;9259;48.194;16.322;2022-12-29T14:24:27;74.63;;;29.50;;
18265;SDS011;9259;48.194;16.322;2022-12-29T14:30:48;72.37;;;29.30;;
18265;SDS011;9259;48.194;16.322;2022-12-29T14:33:17;70.60;;;29.03;;
18265;SDS011;9259;48.194;16.322;2022-12-29T14:35:46;70.40;;;28.20;;
18265;SDS011;9259;48.194;16.322;2022-12-29T14:38:22;71.40;;;29.33;;
18265;SDS011;9259;48.194;16.322;2022-12-29T14:40:52;70.30;;;28.83;;
18265;SDS011;9259;48.194;16.322;2022-12-29T14:43:41;70.87;;;28.27;;
18265;SDS011;9259;48.194;16.322;2022-12-29T14:46:24;72.27;;;28.43;;
18265;SDS011;9259;48.194;16.322;2022-12-29T14:48:56;79.43;;;30.03;;
18265;SDS011;9259;48.194;16.322;2022-12-29T14:51:31;81.40;;;30.70;;
18265;SDS011;9259;48.194;16.322;2022-12-29T14:57:04;73.13;;;29.70;;
18265;SDS011;9259;48.194;16.322;2022-12-29T14:59:34;79.93;;;32.23;;
18265;SDS011;9259;48.194;16.322;2022-12-29T15:02:04;71.43;;;29.40;;
18265;SDS011;9259;48.194;16.322;2022-12-29T15:04:41;68.90;;;28.63;;
18265;SDS011;9259;48.194;16.322;2022-12-29T15:07:09;73.17;;;29.67;;
18265;SDS011;9259;48.194;16.322;2022-12-29T15:09:39;74.47;;;30.17;;